createdAt,value
2022-08-22T00:02:26.788Z,88.81
2022-08-22T00:07:46.199Z,88.82
2022-08-22T00:12:46.680Z,89.45
2022-08-22T00:17:56.097Z,89.74
2022-08-22T00:22:54.710Z,89.66
2022-08-22T00:27:56.869Z,89.84
2022-08-22T00:32:59.605Z,90.01
2022-08-22T00:38:10.484Z,89.68
2022-08-22T00:43:02.368Z,90.61
2022-08-22T00:48:06.327Z,91.07
2022-08-22T00:53:22.450Z,92.29
2022-08-22T00:58:33.998Z,92.87
2022-08-22T01:03:48.519Z,93.49
2022-08-22T01:08:58.790Z,93.48
2022-08-22T01:14:00.447Z,93.67
2022-08-22T01:19:00.376Z,94.67
2022-08-22T01:24:30.494Z,94.29
2022-08-22T01:30:02.874Z,93.92
2022-08-22T01:35:26.601Z,94.14
2022-08-22T01:40:53.613Z,94.11
2022-08-22T01:45:55.002Z,94.05
2022-08-22T01:50:58.036Z,94.26
2022-08-22T01:55:57.779Z,94.65
2022-08-22T02:01:24.891Z,94.59
2022-08-22T02:06:25.068Z,95.31
2022-08-22T02:11:58.780Z,95.49
2022-08-22T02:17:10.871Z,95.74
2022-08-22T02:22:24.822Z,95.41
2022-08-22T02:27:49.818Z,95.45
2022-08-22T02:32:41.406Z,95.49
2022-08-22T02:37:38.345Z,95.63
2022-08-22T02:43:14.950Z,95.97
2022-08-22T02:48:35.835Z,96.20
2022-08-22T02:53:37.242Z,97.09
2022-08-22T02:58:47.856Z,97.70
2022-08-22T03:03:42.801Z,98.16
2022-08-22T03:08:36.123Z,98.55
2022-08-22T03:14:06.109Z,98.71
2022-08-22T03:19:18.414Z,98.90
2022-08-22T03:24:13.135Z,99.10
2022-08-22T03:29:11.899Z,99.24
2022-08-22T03:34:23.899Z,99.36
2022-08-22T03:39:35.546Z,99.96
2022-08-22T03:44:50.788Z,100.00
2022-08-22T03:50:12.948Z,99.89
2022-08-22T03:56:00.237Z,100.00
2022-08-22T04:01:03.657Z,99.99
2022-08-22T04:05:58.360Z,100.00
2022-08-22T04:10:51.717Z,99.65
2022-08-22T04:16:05.139Z,99.89
2022-08-22T04:20:56.805Z,100.00
2022-08-22T04:25:59.490Z,99.83
2022-08-22T04:31:12.895Z,100.00
2022-08-22T04:36:26.521Z,99.98
2022-08-22T04:41:25.711Z,100.00
2022-08-22T04:46:32.114Z,100.00
2022-08-22T04:51:41.173Z,100.00
2022-08-22T04:56:50.845Z,100.00
2022-08-22T05:02:10.645Z,100.00
2022-08-22T05:07:11.342Z,100.00
2022-08-22T05:12:12.053Z,100.00
2022-08-22T05:17:08.045Z,99.99
2022-08-22T05:22:01.297Z,100.00
2022-08-22T05:26:57.385Z,100.00
2022-08-22T05:32:03.716Z,99.88
2022-08-22T05:36:57.370Z,99.96
2022-08-22T05:41:50.392Z,100.00
2022-08-22T05:46:50.118Z,100.00
2022-08-22T05:51:53.640Z,100.00
2022-08-22T05:56:52.137Z,100.00
2022-08-22T06:01:58.683Z,100.00
2022-08-22T06:06:57.633Z,100.00
2022-08-22T06:12:21.792Z,100.00
2022-08-22T06:17:20.421Z,100.00
2022-08-22T06:22:25.919Z,100.00
2022-08-22T06:27:26.320Z,99.64
2022-08-22T06:32:59.564Z,99.56
2022-08-22T06:37:48.251Z,99.56
2022-08-22T06:42:51.989Z,99.27
2022-08-22T06:47:53.540Z,100.00
2022-08-22T06:52:59.680Z,96.23
2022-08-22T06:57:58.922Z,90.64
2022-08-22T07:03:01.182Z,87.71
2022-08-22T07:07:53.181Z,89.94
2022-08-22T07:12:49.328Z,86.67
2022-08-22T07:17:51.839Z,82.61
2022-08-22T07:23:01.035Z,78.76
2022-08-22T07:28:35.837Z,76.87
2022-08-22T07:33:49.863Z,73.49
2022-08-22T07:38:48.263Z,69.71
2022-08-22T07:43:48.700Z,69.10
2022-08-22T07:49:08.143Z,68.09
2022-08-22T07:54:05.421Z,67.37
2022-08-22T07:59:07.995Z,62.91
2022-08-22T08:04:07.733Z,61.35
2022-08-22T08:08:59.773Z,58.71
2022-08-22T08:13:59.049Z,59.22
2022-08-22T08:18:55.289Z,59.34
2022-08-22T08:23:47.373Z,57.86
2022-08-22T08:28:47.658Z,59.21
2022-08-22T08:33:42.087Z,57.19
2022-08-22T08:38:45.502Z,58.49
2022-08-22T08:44:26.040Z,59.32
2022-08-22T08:49:33.727Z,59.24
2022-08-22T08:55:23.907Z,59.48
2022-08-22T09:00:21.237Z,59.91
2022-08-22T09:05:34.222Z,59.94
2022-08-22T09:11:28.489Z,61.45
2022-08-22T09:16:58.134Z,58.78
2022-08-22T09:22:22.881Z,55.53
2022-08-22T09:27:38.342Z,53.58
2022-08-22T09:32:54.718Z,52.81
2022-08-22T09:38:05.514Z,53.66
2022-08-22T09:43:50.282Z,53.63
2022-08-22T09:49:20.278Z,51.79
2022-08-22T09:54:31.376Z,51.97
2022-08-22T09:59:51.029Z,52.10
2022-08-22T10:04:58.166Z,51.31
2022-08-22T10:10:01.487Z,50.08
2022-08-22T10:15:19.421Z,50.88
2022-08-22T10:20:32.281Z,50.98
2022-08-22T10:25:25.725Z,49.32
2022-08-22T10:30:29.752Z,50.41
2022-08-22T10:35:27.355Z,50.91
2022-08-22T10:40:39.353Z,52.30
2022-08-22T10:46:06.904Z,50.46
2022-08-22T10:51:24.888Z,50.42
2022-08-22T10:56:34.354Z,50.00
2022-08-22T11:01:41.548Z,50.80
2022-08-22T11:06:41.017Z,50.49
2022-08-22T11:12:01.958Z,48.72
2022-08-22T11:17:28.015Z,49.66
2022-08-22T11:22:55.598Z,49.75
2022-08-22T11:27:56.675Z,50.23
2022-08-22T11:32:59.519Z,49.09
2022-08-22T11:38:16.235Z,48.77
2022-08-22T11:43:26.165Z,47.28
2022-08-22T11:48:24.962Z,47.36
2022-08-22T11:53:40.082Z,47.47
2022-08-22T11:58:49.610Z,47.02
2022-08-22T12:03:58.493Z,46.50
2022-08-22T12:09:09.575Z,46.25
2022-08-22T12:14:06.965Z,46.86
2022-08-22T12:19:11.286Z,49.01
2022-08-22T12:24:31.900Z,49.41
2022-08-22T12:29:52.961Z,50.15
2022-08-22T12:34:51.661Z,51.38
2022-08-22T12:40:13.221Z,51.87
2022-08-22T12:45:16.487Z,53.42
2022-08-22T12:50:28.121Z,52.67
2022-08-22T12:55:57.156Z,53.64
2022-08-22T13:00:50.296Z,56.10
2022-08-22T13:05:50.409Z,58.75
2022-08-22T13:10:59.529Z,59.87
2022-08-22T13:16:06.576Z,61.71
2022-08-22T13:21:04.516Z,61.91
2022-08-22T13:26:07.904Z,62.42
2022-08-22T13:31:02.810Z,64.15
2022-08-22T13:36:00.298Z,67.16
2022-08-22T13:40:53.166Z,68.85
2022-08-22T13:45:56.326Z,70.87
2022-08-22T13:51:11.305Z,72.68
2022-08-22T13:56:15.648Z,74.12
2022-08-22T14:01:35.740Z,74.63
2022-08-22T14:06:49.046Z,75.95
2022-08-22T14:11:47.525Z,77.17
2022-08-22T14:16:47.350Z,76.84
2022-08-22T14:21:55.916Z,76.39
2022-08-22T14:27:26.856Z,76.84
2022-08-22T14:32:23.833Z,77.68
2022-08-22T14:37:22.266Z,78.69
2022-08-22T14:42:23.902Z,78.36
2022-08-22T14:47:55.217Z,77.28
2022-08-22T14:53:02.601Z,78.03
2022-08-22T14:58:00.276Z,77.71
2022-08-22T15:03:09.516Z,77.07
2022-08-22T15:08:01.433Z,76.59
2022-08-22T15:13:00.156Z,77.13
2022-08-22T15:17:51.832Z,77.13
2022-08-22T15:22:46.178Z,77.58
2022-08-22T15:27:50.066Z,77.80
2022-08-22T15:32:44.691Z,77.37
2022-08-22T15:38:04.134Z,77.34
2022-08-22T15:42:58.212Z,78.15
2022-08-22T15:47:53.192Z,78.50
2022-08-22T15:53:18.740Z,79.53
2022-08-22T15:58:21.018Z,77.96
2022-08-22T16:03:23.436Z,79.27
2022-08-22T16:08:23.658Z,79.12
2022-08-22T16:13:27.609Z,78.85
2022-08-22T16:18:37.387Z,78.76
2022-08-22T16:23:49.812Z,78.98
2022-08-22T16:29:00.657Z,79.41
2022-08-22T16:33:52.401Z,81.04
2022-08-22T16:38:48.861Z,81.93
2022-08-22T16:43:54.908Z,82.21
2022-08-22T16:48:46.965Z,82.46
2022-08-22T16:53:38.970Z,83.30
2022-08-22T16:58:57.035Z,83.84
2022-08-22T17:04:11.830Z,83.65
2022-08-22T17:09:22.938Z,84.12
2022-08-22T17:14:20.173Z,84.78
2022-08-22T17:19:34.853Z,85.87
2022-08-22T17:24:46.424Z,85.93
2022-08-22T17:29:56.899Z,85.91
2022-08-22T17:35:03.946Z,87.43
2022-08-22T17:40:19.386Z,88.69
2022-08-22T17:45:10.990Z,88.91
2022-08-22T17:50:31.719Z,89.54
2022-08-22T17:55:29.114Z,89.54
2022-08-22T18:00:31.465Z,89.66
2022-08-22T18:05:27.786Z,90.18
2022-08-22T18:10:30.783Z,90.20
2022-08-22T18:15:38.927Z,90.20
2022-08-22T18:20:33.973Z,90.15
2022-08-22T18:25:46.108Z,90.87
2022-08-22T18:31:02.555Z,90.96
2022-08-22T18:36:07.694Z,90.70
2022-08-22T18:41:10.938Z,91.49
2022-08-22T18:46:25.059Z,91.51
2022-08-22T18:51:23.866Z,92.02
2022-08-22T18:56:41.994Z,91.66
2022-08-22T19:02:14.754Z,91.58
2022-08-22T19:07:31.438Z,92.25
2022-08-22T19:12:33.150Z,92.33
2022-08-22T19:17:46.651Z,92.65
2022-08-22T19:22:51.359Z,92.62
2022-08-22T19:28:04.863Z,93.15
2022-08-22T19:33:04.843Z,93.54
2022-08-22T19:37:59.823Z,93.84
2022-08-22T19:42:53.339Z,94.09
2022-08-22T19:47:54.949Z,94.65
2022-08-22T19:53:08.193Z,95.06
2022-08-22T19:58:32.555Z,95.55
2022-08-22T20:03:58.238Z,96.12
2022-08-22T20:09:02.802Z,96.09
2022-08-22T20:14:12.493Z,96.14
2022-08-22T20:19:09.244Z,96.05
2022-08-22T20:24:07.397Z,96.12
2022-08-22T20:29:03.029Z,96.36
2022-08-22T20:34:03.961Z,96.18
2022-08-22T20:39:01.812Z,96.53
2022-08-22T20:44:06.400Z,96.02
2022-08-22T20:49:00.758Z,96.89
2022-08-22T20:53:56.445Z,96.76
2022-08-22T20:58:49.051Z,97.29
2022-08-22T21:03:47.511Z,97.04
2022-08-22T21:08:40.257Z,97.52
2022-08-22T21:13:36.789Z,97.53
2022-08-22T21:18:30.507Z,97.33
2022-08-22T21:23:22.306Z,96.72
2022-08-22T21:28:37.053Z,95.79
2022-08-22T21:33:28.811Z,95.32
2022-08-22T21:38:20.587Z,94.39
2022-08-22T21:43:27.677Z,93.52
2022-08-22T21:48:40.258Z,93.06
2022-08-22T21:53:32.145Z,93.48
2022-08-22T21:58:35.490Z,94.08
2022-08-22T22:03:37.217Z,94.62
2022-08-22T22:08:31.513Z,95.32
2022-08-22T22:13:24.646Z,95.13
2022-08-22T22:18:24.614Z,94.65
2022-08-22T22:23:16.958Z,94.19
2022-08-22T22:28:13.910Z,93.39
2022-08-22T22:33:05.732Z,93.75
2022-08-22T22:37:57.883Z,94.05
2022-08-22T22:42:50.319Z,94.17
2022-08-22T22:47:42.278Z,93.86
2022-08-22T22:52:34.770Z,94.09
2022-08-22T22:57:32.619Z,94.28
2022-08-22T23:02:34.395Z,94.36
2022-08-22T23:07:26.787Z,93.97
2022-08-22T23:12:18.667Z,93.85
2022-08-22T23:17:14.790Z,93.83
2022-08-22T23:22:08.393Z,94.12
2022-08-22T23:27:00.443Z,94.54
2022-08-22T23:31:55.592Z,94.79
2022-08-22T23:36:47.736Z,94.64
2022-08-22T23:41:40.625Z,94.25
2022-08-22T23:46:32.526Z,93.79
2022-08-22T23:51:27.283Z,93.70
2022-08-22T23:56:27.298Z,93.79
